Aldrich, Missouri
Current Conditions -  °F | °C
As of 10:52 AM on Friday 24 Oct 2014 (Local Time) from KSGF Reporting Station
Few Clouds Few Clouds  
Wind Chill: 64°   Ceiling: Unl
Heat Index: 64°   Visibility: 10mi
Dew Point: 57°   Wind: 6mph
Humidity: 78%   Direction: 210°SSW
Pressure: 30.13"   Gusts: NA
Location:  37.55°N, 93.55°W
Report Text: KSGF 241552Z 21005KT 10SM FEW040 18/14 A3013 RMK AO2 SLP199 T01780139
Loading
Personal Weather Stations






























Interactive Weather Map New forecast layout! Learn more

10-Day Weather Forecast

Advertisements
Track Severe Weather on mobile